Time;durP1;ratioP1;P1;durP2;ratioP2;P2;SDS_P1;SDS_P2;PMS_P1;PMS_P2;Temp;Humidity;BMP_temperature;BMP_pressure;BME280_temperature;BME280_humidity;BME280_pressure;Samples;Min_cycle;Max_cycle;Signal;HPM_P1;HPM_P2
2022/12/06 00:02:12;;;;;;;5.07;3.35;;;16.10;52.90;;;;;;6183335;23;46475;-71
2022/12/06 00:04:39;;;;;;;4.80;3.13;;;16.20;53.00;;;;;;6183826;23;45422;-72
2022/12/06 00:07:08;;;;;;;5.45;3.90;;;16.20;53.00;;;;;;6183196;23;45300;-71
2022/12/06 00:09:35;;;;;;;5.10;3.45;;;16.20;53.00;;;;;;6184002;23;45447;-70
2022/12/06 00:12:02;;;;;;;4.40;2.95;;;16.20;52.80;;;;;;6182031;23;45418;-71
2022/12/06 00:14:29;;;;;;;5.70;3.53;;;16.20;52.80;;;;;;6183565;23;45272;-71
2022/12/06 00:16:56;;;;;;;5.65;3.50;;;16.20;52.80;;;;;;6183256;23;45442;-71
2022/12/06 00:19:24;;;;;;;4.45;3.30;;;16.20;52.90;;;;;;6183858;23;45420;-71
2022/12/06 00:21:51;;;;;;;5.68;3.55;;;16.20;52.90;;;;;;6183145;23;46299;-71
2022/12/06 00:24:21;;;;;;;5.65;3.60;;;16.20;52.80;;;;;;6182904;23;45493;-71
2022/12/06 00:26:50;;;;;;;6.70;3.60;;;16.10;52.80;;;;;;6183854;23;45329;-71
2022/12/06 00:29:19;;;;;;;5.18;3.78;;;16.10;52.90;;;;;;6183451;23;45237;-71
2022/12/06 00:31:46;;;;;;;5.20;3.80;;;16.10;52.90;;;;;;6182412;23;45269;-71
2022/12/06 00:34:13;;;;;;;5.97;3.78;;;16.10;52.90;;;;;;6183400;23;45293;-71
2022/12/06 00:36:41;;;;;;;5.55;3.28;;;16.10;52.90;;;;;;6183158;23;45269;-71
2022/12/06 00:39:10;;;;;;;6.78;3.70;;;16.10;52.80;;;;;;6183711;23;45208;-71
2022/12/06 00:41:39;;;;;;;5.28;3.55;;;16.10;53.00;;;;;;6181936;23;47223;-71
2022/12/06 00:44:07;;;;;;;5.47;4.05;;;16.10;53.00;;;;;;6183490;23;45397;-72
2022/12/06 00:46:35;;;;;;;6.40;3.70;;;16.10;52.90;;;;;;6181641;23;45398;-72
2022/12/06 00:49:04;;;;;;;5.30;3.35;;;16.10;53.00;;;;;;6183717;23;45434;-71
2022/12/06 00:51:33;;;;;;;4.95;3.42;;;16.10;52.90;;;;;;6182588;23;47393;-71
2022/12/06 00:54:01;;;;;;;5.60;3.80;;;16.20;53.20;;;;;;6182815;23;45234;-71
2022/12/06 00:56:28;;;;;;;6.65;3.70;;;16.20;53.20;;;;;;6183464;23;45304;-71
2022/12/06 00:58:57;;;;;;;5.00;3.53;;;16.10;53.20;;;;;;6183124;23;45285;-71
2022/12/06 01:01:26;;;;;;;4.78;3.40;;;16.20;53.30;;;;;;6182893;23;46837;-70
2022/12/06 01:03:54;;;;;;;4.75;3.38;;;16.20;53.30;;;;;;6183111;23;45335;-71
2022/12/06 01:06:24;;;;;;;5.32;3.90;;;16.20;53.50;;;;;;6183279;23;45587;-71
2022/12/06 01:08:53;;;;;;;4.95;3.25;;;16.20;53.40;;;;;;6183611;23;45536;-71
2022/12/06 01:11:21;;;;;;;5.45;3.90;;;16.20;53.30;;;;;;6182460;23;46553;-71
2022/12/06 01:13:48;;;;;;;5.18;3.55;;;16.20;53.20;;;;;;6183341;23;45212;-71
2022/12/06 01:16:18;;;;;;;6.35;3.80;;;16.10;53.00;;;;;;6182641;23;45252;-71
2022/12/06 01:18:45;;;;;;;5.40;3.75;;;16.10;53.10;;;;;;6183840;23;45404;-71
2022/12/06 01:21:15;;;;;;;5.72;3.97;;;16.10;53.20;;;;;;6181919;23;45444;-70
2022/12/06 01:23:42;;;;;;;5.75;3.47;;;16.10;53.40;;;;;;6183564;23;45383;-71
2022/12/06 01:26:15;;;;;;;4.63;3.17;;;16.10;54.60;;;;;;6182748;23;45483;-71
2022/12/06 01:28:42;;;;;;;6.22;3.90;;;16.10;53.60;;;;;;6183477;23;45285;-71
2022/12/06 01:31:09;;;;;;;6.20;3.60;;;16.10;53.60;;;;;;6182269;23;46649;-71
2022/12/06 01:33:37;;;;;;;5.35;3.70;;;16.10;53.50;;;;;;6182944;23;45278;-72
2022/12/06 01:36:04;;;;;;;4.60;3.60;;;16.10;53.60;;;;;;6183074;23;45379;-71
2022/12/06 01:38:31;;;;;;;5.97;4.05;;;16.10;53.50;;;;;;6182887;23;45486;-72
2022/12/06 01:40:58;;;;;;;5.78;3.50;;;16.10;53.70;;;;;;6182520;23;46239;-71
2022/12/06 01:43:33;;;;;;;6.38;3.38;;;16.20;53.90;;;;;;6183008;23;45348;-70
2022/12/06 01:46:04;;;;;;;5.03;3.47;;;16.20;53.80;;;;;;6181723;23;45309;-72
2022/12/06 01:48:33;;;;;;;5.55;3.75;;;16.20;53.80;;;;;;6183749;23;45198;-71
2022/12/06 01:51:03;;;;;;;5.43;3.63;;;16.20;53.80;;;;;;6182407;23;45504;-71
2022/12/06 01:53:32;;;;;;;5.55;3.58;;;16.20;55.10;;;;;;6182859;23;45269;-72
2022/12/06 01:55:58;;;;;;;4.25;3.30;;;16.20;54.10;;;;;;6182701;23;45416;-71
2022/12/06 01:58:33;;;;;;;5.30;3.25;;;16.20;54.00;;;;;;6183609;23;45554;-71
2022/12/06 02:01:01;;;;;;;5.53;3.67;;;16.20;53.90;;;;;;6181978;23;47274;-71
2022/12/06 02:03:31;;;;;;;4.93;3.65;;;16.20;53.90;;;;;;6183180;23;45388;-71
2022/12/06 02:06:01;;;;;;;5.53;3.67;;;16.20;53.90;;;;;;6183130;23;45198;-72
2022/12/06 02:08:29;;;;;;;4.88;3.35;;;16.10;53.70;;;;;;6183088;23;45463;-72
2022/12/06 02:10:56;;;;;;;5.32;3.70;;;16.20;54.00;;;;;;6182350;23;47493;-71
2022/12/06 02:13:23;;;;;;;6.35;3.28;;;16.20;53.90;;;;;;6182579;23;45924;-71
2022/12/06 02:15:59;;;;;;;4.35;2.92;;;16.20;53.90;;;;;;6183332;23;45327;-72
2022/12/06 02:18:34;;;;;;;5.10;3.72;;;16.10;53.60;;;;;;6183041;23;45411;-72
2022/12/06 02:21:15;;;;;;;4.70;3.38;;;16.10;53.70;;;;;;6182111;23;48195;-71
2022/12/06 02:24:22;;;;;;;4.93;3.35;;;16.10;53.70;;;;;;6183338;23;45248;-71
2022/12/06 02:26:52;;;;;;;4.68;3.08;;;16.20;54.00;;;;;;6152705;23;45326;-72
2022/12/06 02:30:06;;;;;;;5.00;3.60;;;16.20;54.00;;;;;;6183644;23;45124;-71
2022/12/06 02:32:41;;;;;;;5.95;3.60;;;16.20;54.00;;;;;;6182500;23;46662;-71
2022/12/06 02:35:12;;;;;;;5.78;3.55;;;16.10;54.00;;;;;;6182777;23;45328;-71
2022/12/06 02:37:44;;;;;;;5.20;3.10;;;16.20;54.20;;;;;;6182438;23;45253;-72
2022/12/06 02:40:15;;;;;;;5.13;3.40;;;16.20;54.20;;;;;;6183093;23;45138;-71
2022/12/06 02:42:47;;;;;;;5.18;3.72;;;16.20;54.20;;;;;;6181562;23;47074;-71
2022/12/06 02:45:18;;;;;;;4.22;3.25;;;16.20;54.30;;;;;;6182951;23;45369;-71
2022/12/06 02:47:48;;;;;;;3.92;3.08;;;16.20;54.20;;;;;;6180657;23;45268;-72
2022/12/06 02:50:19;;;;;;;3.72;2.92;;;16.20;54.10;;;;;;6182919;23;45376;-71
2022/12/06 02:52:49;;;;;;;4.80;3.42;;;16.20;54.00;;;;;;6182390;23;46257;-71
2022/12/06 02:55:18;;;;;;;5.13;3.28;;;16.20;54.00;;;;;;6181486;23;45472;-71
2022/12/06 02:57:47;;;;;;;5.82;3.63;;;16.20;54.30;;;;;;6182696;23;45201;-71
2022/12/06 03:00:35;;;;;;;4.35;3.10;;;16.20;54.40;;;;;;6182322;23;45272;-71
2022/12/06 03:03:28;;;;;;;5.35;3.70;;;16.20;54.50;;;;;;6182341;23;45486;-71
2022/12/06 03:06:22;;;;;;;4.63;3.55;;;16.20;54.70;;;;;;6161109;23;45249;-71
2022/12/06 03:08:59;;;;;;;5.35;3.42;;;16.20;54.60;;;;;;6157954;23;45213;-71
2022/12/06 03:11:33;;;;;;;6.03;3.78;;;16.20;54.70;;;;;;6183365;23;45460;-71
2022/12/06 03:14:04;;;;;;;5.43;3.45;;;16.20;54.70;;;;;;6183908;23;46268;-71
2022/12/06 03:16:38;;;;;;;5.00;3.53;;;16.20;54.80;;;;;;6182912;23;45264;-71
2022/12/06 03:19:15;;;;;;;4.72;3.28;;;16.20;54.80;;;;;;6184230;23;45229;-71
2022/12/06 03:21:46;;;;;;;6.30;4.00;;;16.20;54.90;;;;;;6183391;23;45153;-70
2022/12/06 03:24:16;;;;;;;5.50;3.25;;;16.20;54.80;;;;;;6184190;23;46388;-71
2022/12/06 03:26:47;;;;;;;6.63;3.50;;;16.10;54.60;;;;;;6183747;23;45394;-71
2022/12/06 03:29:17;;;;;;;4.40;3.20;;;16.20;54.80;;;;;;6183642;23;45357;-71
2022/12/06 03:31:45;;;;;;;5.32;3.58;;;16.20;54.80;;;;;;6183419;23;45524;-71
2022/12/06 03:34:17;;;;;;;5.78;3.60;;;16.20;54.80;;;;;;6183592;23;46302;-71
2022/12/06 03:36:47;;;;;;;4.82;3.38;;;16.20;54.80;;;;;;6183679;23;45261;-70
2022/12/06 03:39:19;;;;;;;5.35;3.53;;;16.20;54.70;;;;;;6183407;23;45343;-71
2022/12/06 03:41:52;;;;;;;6.35;3.58;;;16.30;54.80;;;;;;6183538;23;45209;-71
2022/12/06 03:44:20;;;;;;;5.35;3.67;;;16.20;54.80;;;;;;6183720;23;48183;-71
2022/12/06 03:46:49;;;;;;;5.75;3.60;;;16.20;54.90;;;;;;6181741;23;45280;-71
2022/12/06 03:49:23;;;;;;;5.20;3.08;;;16.20;55.00;;;;;;6184449;23;45423;-71
2022/12/06 03:51:50;;;;;;;4.88;3.53;;;16.20;54.90;;;;;;6182753;23;45550;-71
2022/12/06 03:54:16;;;;;;;5.03;3.10;;;16.20;55.00;;;;;;6183107;23;46384;-71
2022/12/06 03:56:43;;;;;;;5.90;3.25;;;16.20;55.10;;;;;;6183081;23;45398;-71
2022/12/06 03:59:11;;;;;;;5.38;3.45;;;16.20;55.10;;;;;;6184201;23;45295;-72
2022/12/06 04:01:38;;;;;;;4.10;2.95;;;16.20;55.10;;;;;;6183879;23;45239;-72
2022/12/06 04:04:06;;;;;;;6.32;3.30;;;16.20;55.00;;;;;;6182866;23;47486;-72
2022/12/06 04:06:34;;;;;;;5.00;3.70;;;16.20;55.00;;;;;;6183549;23;45205;-72
2022/12/06 04:11:41;;;;;;;5.05;3.70;;;16.20;55.20;;;;;;6181706;23;45404;-71
2022/12/06 04:14:08;;;;;;;8.70;3.55;;;16.20;55.20;;;;;;6182950;23;45298;-72
2022/12/06 04:19:19;;;;;;;4.93;3.20;;;16.20;55.20;;;;;;6183791;23;45318;-72
2022/12/06 04:24:31;;;;;;;5.53;3.20;;;16.20;55.10;;;;;;6184190;23;45345;-72
2022/12/06 04:28:40;;;;;;;3.90;2.90;;;16.30;55.10;;;;;;6183001;23;45365;-71
2022/12/06 04:40:46;;;;;;;5.25;3.28;;;16.20;55.40;;;;;;6183835;23;45261;-71
2022/12/06 04:45:57;;;;;;;5.32;3.40;;;16.20;55.60;;;;;;6181612;23;45269;-72
2022/12/06 04:48:24;;;;;;;5.40;3.08;;;16.20;55.50;;;;;;6182974;23;45323;-72
2022/12/06 04:50:51;;;;;;;5.40;3.38;;;16.30;55.60;;;;;;6183413;23;45440;-71
2022/12/06 04:53:19;;;;;;;5.55;3.03;;;16.20;55.50;;;;;;6183443;23;45422;-72
2022/12/06 04:55:47;;;;;;;6.40;3.17;;;16.20;55.60;;;;;;6181581;23;45394;-71
2022/12/06 04:58:14;;;;;;;3.95;2.97;;;16.20;55.70;;;;;;6183472;23;45245;-71
2022/12/06 05:00:42;;;;;;;4.60;3.28;;;16.20;55.60;;;;;;6183055;23;45422;-71
2022/12/06 05:03:10;;;;;;;5.40;3.30;;;16.20;55.70;;;;;;6183549;23;45276;-71
2022/12/06 05:05:36;;;;;;;6.40;3.53;;;16.20;55.70;;;;;;6182767;23;47620;-72
2022/12/06 05:08:04;;;;;;;3.67;2.92;;;16.30;55.90;;;;;;6183388;23;45273;-71
2022/12/06 05:10:33;;;;;;;5.70;3.67;;;16.20;55.70;;;;;;6183683;23;45445;-72
2022/12/06 05:13:00;;;;;;;4.82;3.35;;;16.30;55.80;;;;;;6182667;23;45250;-71
2022/12/06 05:15:27;;;;;;;6.40;3.63;;;16.30;55.80;;;;;;6183204;23;46655;-71
2022/12/06 05:17:54;;;;;;;5.38;3.58;;;16.30;55.70;;;;;;6182858;23;45193;-71
2022/12/06 05:20:21;;;;;;;5.60;3.20;;;16.30;55.60;;;;;;6183436;23;45237;-71
2022/12/06 05:22:48;;;;;;;5.88;3.42;;;16.30;55.70;;;;;;6182565;23;45209;-71
2022/12/06 05:25:15;;;;;;;4.63;3.17;;;16.30;55.60;;;;;;6183235;23;47472;-71
2022/12/06 05:27:43;;;;;;;5.13;3.15;;;16.30;55.70;;;;;;6183462;23;45296;-71
2022/12/06 05:30:12;;;;;;;5.70;3.35;;;16.30;55.70;;;;;;6182392;23;45264;-71
2022/12/06 05:32:38;;;;;;;5.15;3.47;;;16.30;55.70;;;;;;6183348;23;45394;-71
2022/12/06 05:35:06;;;;;;;5.20;3.55;;;16.30;55.80;;;;;;6182458;23;47530;-72
2022/12/06 05:37:33;;;;;;;3.97;3.00;;;16.30;55.90;;;;;;6183040;23;45821;-71
2022/12/06 05:39:59;;;;;;;5.85;3.35;;;16.30;55.90;;;;;;6185603;23;45393;-72
2022/12/06 05:42:26;;;;;;;5.63;3.58;;;16.30;55.90;;;;;;6182253;23;45431;-71
2022/12/06 05:44:55;;;;;;;5.57;3.58;;;16.20;55.90;;;;;;6182540;23;47468;-71
2022/12/06 05:47:21;;;;;;;4.20;2.95;;;16.20;55.90;;;;;;6182126;23;45904;-72
2022/12/06 05:49:48;;;;;;;5.20;3.22;;;16.30;56.10;;;;;;6183323;23;45397;-71
2022/12/06 05:52:15;;;;;;;4.57;3.33;;;16.20;56.00;;;;;;6182615;23;45453;-71
2022/12/06 05:54:42;;;;;;;4.70;2.90;;;16.30;56.00;;;;;;6181978;23;47634;-71
2022/12/06 05:57:08;;;;;;;5.28;3.22;;;16.30;56.10;;;;;;6183204;23;45292;-71
2022/12/06 05:59:35;;;;;;;5.80;3.28;;;16.30;56.10;;;;;;6183320;23;45325;-71
2022/12/06 06:02:03;;;;;;;8.88;3.40;;;16.30;56.10;;;;;;6182558;23;45519;-71
2022/12/06 06:04:30;;;;;;;5.30;3.40;;;16.30;56.10;;;;;;6182643;23;46372;-71
2022/12/06 06:06:57;;;;;;;5.88;3.53;;;16.30;56.00;;;;;;6183051;23;45382;-71
2022/12/06 06:09:26;;;;;;;5.00;3.47;;;16.30;55.90;;;;;;6182952;23;45273;-72
2022/12/06 06:11:53;;;;;;;4.38;2.90;;;16.30;56.10;;;;;;6182615;23;45523;-72
2022/12/06 06:14:19;;;;;;;4.75;3.25;;;16.40;56.20;;;;;;6183100;23;45469;-71
2022/12/06 06:16:46;;;;;;;5.15;3.30;;;16.40;56.20;;;;;;6182410;23;45309;-71
2022/12/06 06:19:14;;;;;;;6.00;3.70;;;16.30;55.90;;;;;;6183522;23;45292;-71
2022/12/06 06:21:41;;;;;;;5.30;3.45;;;16.30;56.00;;;;;;6181447;23;45439;-71
2022/12/06 06:24:09;;;;;;;6.00;3.50;;;16.30;56.00;;;;;;6182874;23;48012;-71
2022/12/06 06:26:35;;;;;;;5.57;3.58;;;16.30;56.00;;;;;;6182538;23;45314;-71
2022/12/06 06:29:02;;;;;;;4.72;2.95;;;16.30;56.10;;;;;;6182972;23;45460;-71
2022/12/06 06:31:29;;;;;;;5.38;3.20;;;16.30;56.10;;;;;;6182650;23;45252;-71
2022/12/06 06:33:56;;;;;;;5.22;3.30;;;16.30;56.10;;;;;;6182886;23;46289;-71
2022/12/06 06:36:24;;;;;;;4.38;2.92;;;16.30;56.20;;;;;;6182751;22;45198;-72
2022/12/06 06:38:51;;;;;;;5.47;3.20;;;16.30;56.40;;;;;;6182344;23;45268;-71
2022/12/06 06:41:18;;;;;;;5.28;3.40;;;16.30;56.60;;;;;;6182801;23;45428;-71
2022/12/06 06:43:45;;;;;;;4.60;3.00;;;16.30;56.50;;;;;;6182089;23;45473;-71
2022/12/06 06:46:11;;;;;;;5.22;3.30;;;16.30;56.60;;;;;;6181772;23;45441;-71
2022/12/06 06:48:39;;;;;;;4.72;2.80;;;16.30;56.60;;;;;;6183071;23;45257;-72
2022/12/06 06:51:10;;;;;;;6.28;3.83;;;16.30;56.60;;;;;;6182226;23;45230;-71
2022/12/06 06:53:39;;;;;;;5.20;2.95;;;16.30;56.70;;;;;;6181550;23;47062;-72
2022/12/06 06:56:06;;;;;;;5.35;3.35;;;16.30;56.60;;;;;;6182205;23;45260;-71
2022/12/06 06:58:33;;;;;;;4.68;3.10;;;16.30;56.60;;;;;;6183172;23;45349;-71
2022/12/06 07:01:02;;;;;;;4.53;3.10;;;16.30;56.60;;;;;;6182726;23;45623;-71
2022/12/06 07:03:29;;;;;;;4.15;2.80;;;16.40;56.70;;;;;;6181907;23;46123;-71
2022/12/06 07:05:58;;;;;;;5.28;3.15;;;16.30;56.50;;;;;;6182429;23;45373;-72
2022/12/06 07:08:26;;;;;;;5.00;3.20;;;16.40;56.60;;;;;;6182357;23;45481;-72
2022/12/06 07:10:54;;;;;;;3.85;2.80;;;16.40;56.60;;;;;;6182791;23;45279;-71
2022/12/06 07:13:23;;;;;;;5.28;2.90;;;16.30;56.60;;;;;;6181559;23;46768;-71
2022/12/06 07:15:50;;;;;;;4.50;2.83;;;16.40;56.60;;;;;;6183123;23;45304;-71
2022/12/06 07:18:18;;;;;;;3.88;2.88;;;16.30;56.70;;;;;;6182517;23;45291;-71
2022/12/06 07:20:45;;;;;;;4.45;2.80;;;16.30;56.80;;;;;;6182621;23;45420;-72
2022/12/06 07:23:12;;;;;;;4.18;2.75;;;16.30;56.90;;;;;;6181831;23;46284;-71
2022/12/06 07:25:39;;;;;;;5.00;2.92;;;16.30;58.00;;;;;;6181915;23;45264;-72
2022/12/06 07:28:07;;;;;;;4.00;2.83;;;16.30;56.90;;;;;;6183115;23;45481;-70
2022/12/06 07:30:34;;;;;;;4.07;2.50;;;16.30;56.90;;;;;;6182193;23;45232;-73
2022/12/06 07:33:01;;;;;;;5.22;3.08;;;16.30;57.00;;;;;;6181787;23;45406;-71
2022/12/06 07:35:27;;;;;;;3.33;2.63;;;16.30;56.90;;;;;;6182307;23;45344;-72
2022/12/06 07:37:54;;;;;;;4.47;2.63;;;16.30;57.00;;;;;;6182002;22;45253;-71
2022/12/06 07:40:21;;;;;;;7.22;3.80;;;16.30;57.00;;;;;;6182649;23;45387;-71
2022/12/06 07:45:34;;;;;;;4.78;3.00;;;16.30;57.00;;;;;;6181723;23;45469;-72
2022/12/06 07:48:01;;;;;;;4.55;2.75;;;16.30;57.00;;;;;;6181543;23;45473;-71
2022/12/06 07:50:27;;;;;;;5.65;2.75;;;16.30;57.00;;;;;;6182665;23;45189;-71
2022/12/06 07:52:54;;;;;;;4.57;2.78;;;16.40;57.00;;;;;;6181373;23;48441;-71
2022/12/06 07:55:21;;;;;;;3.75;2.45;;;16.30;57.00;;;;;;6182275;23;45300;-71
2022/12/06 07:57:48;;;;;;;3.90;2.63;;;16.40;57.10;;;;;;6184076;23;45389;-71
2022/12/06 08:00:16;;;;;;;4.43;2.50;;;16.40;56.90;;;;;;6183579;23;45389;-71
2022/12/06 08:02:45;;;;;;;3.78;2.55;;;16.40;57.10;;;;;;6183261;23;47477;-72
2022/12/06 08:05:12;;;;;;;4.72;2.78;;;16.40;57.10;;;;;;6183220;23;45224;-72
2022/12/06 08:07:39;;;;;;;3.63;2.60;;;16.40;57.20;;;;;;6184044;23;45317;-71
2022/12/06 08:10:07;;;;;;;5.13;2.70;;;16.30;57.20;;;;;;6184163;23;45221;-71
2022/12/06 08:12:34;;;;;;;5.22;2.38;;;16.30;57.30;;;;;;6182434;23;48397;-71
2022/12/06 08:15:00;;;;;;;3.58;2.63;;;16.30;57.40;;;;;;6183812;23;45225;-71
2022/12/06 08:17:27;;;;;;;3.65;2.45;;;16.30;57.30;;;;;;6183538;23;45280;-71
2022/12/06 08:19:56;;;;;;;4.00;2.50;;;16.30;57.40;;;;;;6183678;23;45380;-71
2022/12/06 08:22:22;;;;;;;3.95;2.40;;;16.30;57.40;;;;;;6182544;23;46986;-71
2022/12/06 08:24:49;;;;;;;2.80;1.98;;;16.30;57.50;;;;;;6183772;23;45407;-71
2022/12/06 08:27:16;;;;;;;3.75;2.35;;;16.30;57.60;;;;;;6184017;23;45209;-71
2022/12/06 08:29:44;;;;;;;3.30;2.30;;;16.30;57.50;;;;;;6183291;23;45258;-71
2022/12/06 08:32:10;;;;;;;3.28;2.47;;;16.30;57.60;;;;;;6183098;23;46229;-71
2022/12/06 08:34:37;;;;;;;4.25;2.38;;;16.30;57.60;;;;;;6183125;23;45255;-71
2022/12/06 08:37:05;;;;;;;4.97;2.10;;;16.30;57.60;;;;;;6183039;23;45315;-71
2022/12/06 08:39:32;;;;;;;2.28;1.88;;;16.40;57.70;;;;;;6183399;23;45462;-71
2022/12/06 08:42:01;;;;;;;3.55;2.35;;;16.40;57.60;;;;;;6182817;23;46560;-71
2022/12/06 08:44:29;;;;;;;2.75;1.98;;;16.40;57.60;;;;;;6183486;23;45185;-72
2022/12/06 08:46:58;;;;;;;3.10;2.00;;;16.40;57.50;;;;;;6182084;23;45509;-71
2022/12/06 08:49:26;;;;;;;2.90;1.90;;;16.40;57.50;;;;;;6183730;23;45543;-72
2022/12/06 08:51:54;;;;;;;2.47;1.95;;;16.40;57.50;;;;;;6182213;23;47473;-71
2022/12/06 08:54:24;;;;;;;2.55;1.88;;;16.40;57.50;;;;;;6183150;23;45366;-71
2022/12/06 08:56:52;;;;;;;3.05;2.05;;;16.40;57.40;;;;;;6183203;23;45258;-72
2022/12/06 08:59:19;;;;;;;3.03;2.13;;;16.40;57.50;;;;;;6183666;23;45296;-71
2022/12/06 09:01:47;;;;;;;2.60;1.88;;;16.40;57.50;;;;;;6182858;23;47329;-71
2022/12/06 09:04:14;;;;;;;2.15;1.95;;;16.40;57.60;;;;;;6183458;23;45761;-71
2022/12/06 09:06:43;;;;;;;2.88;1.60;;;16.30;57.70;;;;;;6183334;23;45509;-71
2022/12/06 09:09:11;;;;;;;2.60;1.85;;;16.30;57.80;;;;;;6182959;23;45187;-71
2022/12/06 09:11:40;;;;;;;4.18;2.20;;;16.30;57.90;;;;;;6182506;23;46366;-71
2022/12/06 09:14:09;;;;;;;1.90;1.70;;;16.30;57.80;;;;;;6183189;23;45360;-71
2022/12/06 09:16:35;;;;;;;2.67;1.90;;;16.30;57.90;;;;;;6183181;23;45261;-71
2022/12/06 09:19:03;;;;;;;2.15;1.67;;;16.30;59.10;;;;;;6183912;23;45198;-71
2022/12/06 09:21:30;;;;;;;2.88;1.52;;;16.30;57.90;;;;;;6182310;23;47226;-71
2022/12/06 09:23:58;;;;;;;1.60;1.30;;;16.30;57.80;;;;;;6183196;23;45482;-71
2022/12/06 09:26:25;;;;;;;3.13;1.60;;;16.30;58.00;;;;;;6182834;23;45312;-71
2022/12/06 09:28:55;;;;;;;1.88;1.30;;;16.30;57.90;;;;;;6183878;23;45299;-71
2022/12/06 09:31:22;;;;;;;2.60;1.63;;;16.30;57.90;;;;;;6182483;23;47657;-71
2022/12/06 09:33:49;;;;;;;1.95;1.52;;;16.40;58.00;;;;;;6182684;23;45288;-71
2022/12/06 09:36:20;;;;;;;3.65;1.98;;;16.40;57.90;;;;;;6183435;23;45331;-72
2022/12/06 09:38:51;;;;;;;2.50;1.60;;;16.40;57.90;;;;;;6183192;23;45273;-72
2022/12/06 09:42:05;;;;;;;2.78;1.40;;;16.40;58.00;;;;;;6183712;23;46568;-72
2022/12/06 09:44:48;;;;;;;2.55;1.60;;;16.40;57.80;;;;;;6145601;23;45353;-72
2022/12/06 09:47:28;;;;;;;2.38;1.48;;;16.40;57.80;;;;;;6182603;23;45365;-72
2022/12/06 09:50:08;;;;;;;2.42;1.50;;;16.40;57.80;;;;;;6183035;23;45430;-71
2022/12/06 09:52:57;;;;;;;2.47;1.65;;;16.40;58.00;;;;;;6183032;23;45420;-72
2022/12/06 09:55:46;;;;;;;2.70;1.40;;;16.40;58.10;;;;;;6182147;23;45444;-72
2022/12/06 09:58:27;;;;;;;2.75;1.73;;;16.40;57.90;;;;;;6183465;23;45181;-72
2022/12/06 10:01:07;;;;;;;3.15;1.55;;;16.40;58.10;;;;;;6183503;23;45409;-71
2022/12/06 10:03:50;;;;;;;3.30;1.55;;;16.30;57.90;;;;;;6182623;23;48188;-71
2022/12/06 10:06:20;;;;;;;1.70;1.30;;;16.30;58.00;;;;;;6182913;23;45436;-71
2022/12/06 10:09:00;;;;;;;2.70;1.42;;;16.30;58.00;;;;;;6183123;23;45314;-71
2022/12/06 10:11:45;;;;;;;1.83;1.20;;;16.30;57.90;;;;;;6183501;23;45201;-71
2022/12/06 10:14:25;;;;;;;2.30;1.30;;;16.30;58.00;;;;;;6183526;23;47250;-71
2022/12/06 10:17:02;;;;;;;4.07;1.55;;;16.30;57.90;;;;;;6182887;23;45456;-71
2022/12/06 10:19:42;;;;;;;2.13;1.40;;;16.30;57.90;;;;;;6182732;23;45316;-71
2022/12/06 10:22:16;;;;;;;1.25;1.00;;;16.30;57.90;;;;;;6182799;23;45368;-71
2022/12/06 10:24:59;;;;;;;5.03;1.20;;;16.40;57.90;;;;;;6182490;23;48019;-71
2022/12/06 10:27:33;;;;;;;1.30;1.10;;;16.40;57.80;;;;;;6183612;23;45248;-72
2022/12/06 10:30:05;;;;;;;1.38;1.10;;;16.40;57.70;;;;;;6182461;23;45326;-71
2022/12/06 10:32:47;;;;;;;2.42;1.20;;;16.40;57.80;;;;;;6182883;23;45257;-72
2022/12/06 10:35:21;;;;;;;2.20;0.98;;;16.40;57.70;;;;;;6182485;23;48201;-71
2022/12/06 10:38:02;;;;;;;3.38;1.33;;;16.40;57.80;;;;;;6182904;22;45352;-71
2022/12/06 10:40:36;;;;;;;2.67;1.20;;;16.40;57.90;;;;;;6183019;23;45278;-72
2022/12/06 10:43:12;;;;;;;1.77;1.00;;;16.40;57.90;;;;;;6182753;23;45378;-71
2022/12/06 10:48:36;;;;;;;1.70;1.02;;;16.30;58.00;;;;;;6182749;23;45268;-71
2022/12/06 10:51:07;;;;;;;2.50;1.10;;;16.40;58.00;;;;;;6183093;23;45240;-71
2022/12/06 10:53:43;;;;;;;1.25;0.88;;;16.30;58.00;;;;;;6181483;23;45253;-71
2022/12/06 10:56:16;;;;;;;1.40;1.00;;;16.30;58.10;;;;;;6182871;23;45224;-71
2022/12/06 10:58:50;;;;;;;1.60;0.98;;;16.30;58.00;;;;;;6182362;23;46427;-71
2022/12/06 11:01:21;;;;;;;1.58;1.20;;;16.40;58.10;;;;;;6183187;23;45376;-71
2022/12/06 11:03:57;;;;;;;1.23;1.00;;;16.30;58.00;;;;;;6182008;23;45352;-72
2022/12/06 11:06:31;;;;;;;1.65;1.00;;;16.30;57.90;;;;;;6182721;23;46542;-71
2022/12/06 11:09:04;;;;;;;1.30;0.80;;;16.30;57.80;;;;;;6183082;23;45313;-72
2022/12/06 11:11:35;;;;;;;1.70;1.02;;;16.30;57.90;;;;;;6182167;23;45395;-71
2022/12/06 11:14:07;;;;;;;1.35;1.10;;;16.30;57.80;;;;;;6182550;23;45743;-71
2022/12/06 11:16:37;;;;;;;1.50;1.00;;;16.40;57.90;;;;;;6181363;23;46309;-72
2022/12/06 11:19:17;;;;;;;1.02;0.80;;;16.40;57.90;;;;;;6182684;23;45217;-71
2022/12/06 11:21:52;;;;;;;1.48;0.95;;;16.40;57.80;;;;;;6181882;23;45201;-71
2022/12/06 11:24:26;;;;;;;1.75;0.73;;;16.40;57.80;;;;;;6182764;23;45323;-71
2022/12/06 11:27:01;;;;;;;1.27;0.82;;;16.40;57.90;;;;;;6181730;23;46956;-72
2022/12/06 11:29:28;;;;;;;1.13;0.88;;;16.40;57.80;;;;;;6183020;23;45786;-71
2022/12/06 11:31:57;;;;;;;3.33;1.17;;;16.40;57.80;;;;;;6183282;23;45397;-72
2022/12/06 11:34:31;;;;;;;0.80;0.80;;;16.40;57.70;;;;;;6183613;23;45318;-71
2022/12/06 11:36:58;;;;;;;1.30;0.90;;;16.40;57.70;;;;;;6183535;22;47452;-71
2022/12/06 11:39:26;;;;;;;1.50;1.00;;;16.40;57.70;;;;;;6182982;23;45545;-72
2022/12/06 11:41:56;;;;;;;1.13;0.93;;;16.40;57.80;;;;;;6183406;23;45202;-71
2022/12/06 11:44:26;;;;;;;1.77;1.02;;;16.40;57.80;;;;;;6183464;23;45445;-72
2022/12/06 11:46:55;;;;;;;1.95;0.80;;;16.40;57.90;;;;;;6181733;23;46644;-71
2022/12/06 11:49:31;;;;;;;1.00;0.80;;;16.40;57.90;;;;;;6183502;23;45264;-72
2022/12/06 11:52:03;;;;;;;2.28;1.05;;;16.40;57.90;;;;;;6182619;23;45213;-71
2022/12/06 11:54:34;;;;;;;2.08;0.80;;;16.40;58.00;;;;;;6183469;23;45296;-71
2022/12/06 11:57:11;;;;;;;0.70;0.70;;;16.40;58.00;;;;;;6183441;23;46409;-71
2022/12/06 11:59:38;;;;;;;1.05;0.90;;;16.40;58.00;;;;;;6183943;23;45357;-71
2022/12/06 12:02:05;;;;;;;1.75;0.90;;;16.40;58.10;;;;;;6182533;23;45317;-72
2022/12/06 12:04:38;;;;;;;0.80;0.77;;;16.40;58.00;;;;;;6184108;23;45417;-72
2022/12/06 12:07:13;;;;;;;1.02;0.70;;;16.40;58.00;;;;;;6183636;23;48375;-72
2022/12/06 12:09:51;;;;;;;1.33;0.77;;;16.40;58.00;;;;;;6183514;23;45352;-71
2022/12/06 12:12:20;;;;;;;0.70;0.60;;;16.40;57.80;;;;;;6183377;23;45347;-71
2022/12/06 12:14:56;;;;;;;0.93;0.55;;;16.40;57.80;;;;;;6183142;23;45182;-71
2022/12/06 12:17:28;;;;;;;1.30;0.73;;;16.40;57.80;;;;;;6183831;23;46411;-71
2022/12/06 12:20:02;;;;;;;0.65;0.60;;;16.40;57.70;;;;;;6183158;23;45312;-72
2022/12/06 12:22:34;;;;;;;1.45;0.68;;;16.40;57.70;;;;;;6183373;23;45381;-71
2022/12/06 12:25:02;;;;;;;1.50;0.73;;;16.40;57.70;;;;;;6183444;23;45456;-71
2022/12/06 12:27:42;;;;;;;0.88;0.70;;;16.40;57.80;;;;;;6183312;23;47490;-71
2022/12/06 12:30:31;;;;;;;0.85;0.50;;;16.40;57.80;;;;;;6183647;23;45402;-72
2022/12/06 12:33:19;;;;;;;1.27;0.55;;;16.40;57.80;;;;;;6183374;23;45348;-71
2022/12/06 12:35:50;;;;;;;0.77;0.70;;;16.40;57.70;;;;;;6183714;23;45351;-71
2022/12/06 12:38:26;;;;;;;1.63;1.00;;;16.40;57.80;;;;;;6182553;23;46530;-72
2022/12/06 12:40:56;;;;;;;1.45;0.88;;;16.40;57.80;;;;;;6183595;23;45737;-71
2022/12/06 12:43:26;;;;;;;1.45;0.77;;;16.40;57.90;;;;;;6183147;23;45241;-72
2022/12/06 12:46:07;;;;;;;1.15;0.80;;;16.40;57.90;;;;;;6183022;23;45248;-71
2022/12/06 12:48:34;;;;;;;1.17;0.60;;;16.40;58.00;;;;;;6183843;23;46282;-72
2022/12/06 12:51:05;;;;;;;1.55;0.65;;;16.40;57.90;;;;;;6183636;23;45250;-72
2022/12/06 12:53:37;;;;;;;1.20;0.70;;;16.40;58.00;;;;;;6182975;23;45165;-72
2022/12/06 12:56:08;;;;;;;1.25;0.85;;;16.40;58.00;;;;;;6184319;23;45464;-71
2022/12/06 12:58:35;;;;;;;1.33;0.70;;;16.40;57.90;;;;;;6183832;23;46311;-72
2022/12/06 13:01:05;;;;;;;1.23;0.80;;;16.40;57.90;;;;;;6183109;23;45296;-71
2022/12/06 13:03:33;;;;;;;2.30;0.70;;;16.40;57.80;;;;;;6183459;23;45303;-72
2022/12/06 13:06:00;;;;;;;0.77;0.60;;;16.40;57.70;;;;;;6183340;23;45364;-72
2022/12/06 13:08:33;;;;;;;0.93;0.70;;;16.50;57.90;;;;;;6183589;23;47234;-72
2022/12/06 13:11:03;;;;;;;1.08;0.70;;;16.40;57.90;;;;;;6183713;23;45575;-72
2022/12/06 13:13:35;;;;;;;0.70;0.55;;;16.40;57.70;;;;;;6183032;23;45412;-71
2022/12/06 13:16:03;;;;;;;1.05;0.60;;;16.40;57.40;;;;;;6183603;23;45362;-72
2022/12/06 13:18:35;;;;;;;1.55;0.70;;;16.40;57.60;;;;;;6182850;23;45410;-72
2022/12/06 13:21:09;;;;;;;1.42;0.77;;;16.40;57.60;;;;;;6182985;23;45281;-72
2022/12/06 13:23:37;;;;;;;1.40;0.50;;;16.40;57.60;;;;;;6182897;23;45345;-72
2022/12/06 13:26:16;;;;;;;1.13;0.68;;;16.40;57.60;;;;;;6183629;23;45498;-71
2022/12/06 13:28:46;;;;;;;0.65;0.60;;;16.40;57.70;;;;;;6183436;23;46591;-72
2022/12/06 13:31:17;;;;;;;1.45;0.80;;;16.40;57.70;;;;;;6183102;23;45444;-71
2022/12/06 13:33:48;;;;;;;0.68;0.60;;;16.40;57.70;;;;;;6183292;23;45233;-72